sensor_id;sensor_type;location;lat;lon;timestamp;pressure;altitude;pressure_sealevel;temperature;humidity
32320;BME280;19080;51.750;5.888;2023-07-22T00:02:24;101168.41;;;15.48;100.00
32320;BME280;19080;51.750;5.888;2023-07-22T00:04:51;101113.13;;;15.08;100.00
32320;BME280;19080;51.750;5.888;2023-07-22T00:07:18;101171.97;;;15.38;100.00
32320;BME280;19080;51.750;5.888;2023-07-22T00:09:45;101168.41;;;15.36;100.00
32320;BME280;19080;51.750;5.888;2023-07-22T00:12:12;101193.38;;;15.35;100.00
32320;BME280;19080;51.750;5.888;2023-07-22T00:14:40;101170.19;;;15.17;100.00
32320;BME280;19080;51.750;5.888;2023-07-22T00:17:07;101191.56;;;15.16;100.00
32320;BME280;19080;51.750;5.888;2023-07-22T00:19:34;101179.06;;;15.06;100.00
32320;BME280;19080;51.750;5.888;2023-07-22T00:22:01;101175.47;;;14.96;100.00
32320;BME280;19080;51.750;5.888;2023-07-22T00:24:28;101190.59;;;14.89;100.00
32320;BME280;19080;51.750;5.888;2023-07-22T00:26:55;101133.47;;;14.49;100.00
32320;BME280;19080;51.750;5.888;2023-07-22T00:29:22;101180.72;;;14.64;100.00
32320;BME280;19080;51.750;5.888;2023-07-22T00:31:49;101172.66;;;14.55;100.00
32320;BME280;19080;51.750;5.888;2023-07-22T00:34:16;101084.28;;;14.06;100.00
32320;BME280;19080;51.750;5.888;2023-07-22T00:36:43;101178.00;;;14.52;100.00
32320;BME280;19080;51.750;5.888;2023-07-22T00:39:10;101169.00;;;14.41;100.00
32320;BME280;19080;51.750;5.888;2023-07-22T00:41:40;101157.38;;;14.32;100.00
32320;BME280;19080;51.750;5.888;2023-07-22T00:44:09;101153.81;;;14.27;100.00
32320;BME280;19080;51.750;5.888;2023-07-22T00:46:35;101177.06;;;14.47;100.00
32320;BME280;19080;51.750;5.888;2023-07-22T00:49:02;101155.63;;;14.34;100.00
32320;BME280;19080;51.750;5.888;2023-07-22T00:51:29;101160.97;;;14.38;100.00
32320;BME280;19080;51.750;5.888;2023-07-22T00:53:56;101172.66;;;14.52;100.00
32320;BME280;19080;51.750;5.888;2023-07-22T00:56:22;101176.25;;;14.58;100.00
32320;BME280;19080;51.750;5.888;2023-07-22T00:58:51;101161.06;;;14.53;100.00
32320;BME280;19080;51.750;5.888;2023-07-22T01:01:18;101118.22;;;14.34;100.00
32320;BME280;19080;51.750;5.888;2023-07-22T01:03:45;101163.81;;;14.73;100.00
32320;BME280;19080;51.750;5.888;2023-07-22T01:06:14;101148.66;;;14.70;100.00
32320;BME280;19080;51.750;5.888;2023-07-22T01:08:40;101071.84;;;14.11;100.00
32320;BME280;19080;51.750;5.888;2023-07-22T01:11:07;101161.09;;;14.59;100.00
32320;BME280;19080;51.750;5.888;2023-07-22T01:13:34;101155.75;;;14.56;100.00
32320;BME280;19080;51.750;5.888;2023-07-22T01:16:01;101164.66;;;14.58;100.00
32320;BME280;19080;51.750;5.888;2023-07-22T01:18:27;101153.94;;;14.50;100.00
32320;BME280;19080;51.750;5.888;2023-07-22T01:20:54;101161.97;;;14.50;100.00
32320;BME280;19080;51.750;5.888;2023-07-22T01:23:21;101161.97;;;14.50;100.00
32320;BME280;19080;51.750;5.888;2023-07-22T01:25:48;101161.06;;;14.47;100.00
32320;BME280;19080;51.750;5.888;2023-07-22T01:28:15;101155.66;;;14.41;100.00
32320;BME280;19080;51.750;5.888;2023-07-22T01:30:42;101143.19;;;14.40;100.00
32320;BME280;19080;51.750;5.888;2023-07-22T01:33:08;101155.66;;;14.41;100.00
32320;BME280;19080;51.750;5.888;2023-07-22T01:35:35;101150.31;;;14.41;100.00
32320;BME280;19080;51.750;5.888;2023-07-22T01:38:01;101151.19;;;14.40;100.00
32320;BME280;19080;51.750;5.888;2023-07-22T01:40:28;101153.88;;;14.40;100.00
32320;BME280;19080;51.750;5.888;2023-07-22T01:42:55;101125.31;;;14.26;100.00
32320;BME280;19080;51.750;5.888;2023-07-22T01:45:22;101143.22;;;14.43;100.00
32320;BME280;19080;51.750;5.888;2023-07-22T01:47:48;101146.78;;;14.45;100.00
32320;BME280;19080;51.750;5.888;2023-07-22T01:50:15;101128.94;;;14.38;100.00
32320;BME280;19080;51.750;5.888;2023-07-22T01:52:42;101110.22;;;14.38;100.00
32320;BME280;19080;51.750;5.888;2023-07-22T01:55:08;101120.06;;;14.42;100.00
32320;BME280;19080;51.750;5.888;2023-07-22T01:57:38;101116.47;;;14.40;100.00
32320;BME280;19080;51.750;5.888;2023-07-22T02:00:06;101137.03;;;14.50;100.00
32320;BME280;19080;51.750;5.888;2023-07-22T02:02:41;101056.69;;;14.06;100.00
32320;BME280;19080;51.750;5.888;2023-07-22T02:05:09;101139.69;;;14.50;100.00
32320;BME280;19080;51.750;5.888;2023-07-22T02:07:39;101143.28;;;14.55;100.00
32320;BME280;19080;51.750;5.888;2023-07-22T02:10:06;101122.75;;;14.46;100.00
32320;BME280;19080;51.750;5.888;2023-07-22T02:12:33;101136.13;;;14.48;100.00
32320;BME280;19080;51.750;5.888;2023-07-22T02:14:59;101143.25;;;14.49;100.00
32320;BME280;19080;51.750;5.888;2023-07-22T02:17:26;101146.81;;;14.49;100.00
32320;BME280;19080;51.750;5.888;2023-07-22T02:19:53;101148.59;;;14.46;100.00
32320;BME280;19080;51.750;5.888;2023-07-22T02:22:20;101144.97;;;14.41;100.00
32320;BME280;19080;51.750;5.888;2023-07-22T02:24:46;101063.72;;;13.88;100.00
32320;BME280;19080;51.750;5.888;2023-07-22T02:27:13;101098.50;;;14.02;100.00
32320;BME280;19080;51.750;5.888;2023-07-22T02:29:40;101130.63;;;14.20;100.00
32320;BME280;19080;51.750;5.888;2023-07-22T02:32:07;101113.66;;;14.09;100.00
32320;BME280;19080;51.750;5.888;2023-07-22T02:34:35;101135.97;;;14.20;100.00
32320;BME280;19080;51.750;5.888;2023-07-22T02:37:01;101135.94;;;14.17;100.00
32320;BME280;19080;51.750;5.888;2023-07-22T02:39:28;101131.47;;;14.12;100.00
32320;BME280;19080;51.750;5.888;2023-07-22T02:41:54;101110.91;;;13.94;100.00
32320;BME280;19080;51.750;5.888;2023-07-22T02:44:21;101114.47;;;13.93;100.00
32320;BME280;19080;51.750;5.888;2023-07-22T02:46:48;100989.50;;;13.16;100.00
32320;BME280;19080;51.750;5.888;2023-07-22T02:49:15;101117.97;;;13.80;100.00
32320;BME280;19080;51.750;5.888;2023-07-22T02:51:41;101125.09;;;13.82;100.00
32320;BME280;19080;51.750;5.888;2023-07-22T02:54:08;101133.09;;;13.79;100.00
32320;BME280;19080;51.750;5.888;2023-07-22T02:56:35;101123.22;;;13.67;100.00
32320;BME280;19080;51.750;5.888;2023-07-22T02:59:01;101125.00;;;13.68;100.00
32320;BME280;19080;51.750;5.888;2023-07-22T03:01:28;101133.03;;;13.70;100.00
32320;BME280;19080;51.750;5.888;2023-07-22T03:03:56;101108.91;;;13.56;100.00
32320;BME280;19080;51.750;5.888;2023-07-22T03:06:22;101138.31;;;13.64;100.00
32320;BME280;19080;51.750;5.888;2023-07-22T03:08:49;101090.97;;;13.34;100.00
32320;BME280;19080;51.750;5.888;2023-07-22T03:11:18;101123.00;;;13.40;100.00
32320;BME280;19080;51.750;5.888;2023-07-22T03:13:44;101119.41;;;13.35;100.00
32320;BME280;19080;51.750;5.888;2023-07-22T03:16:11;101131.75;;;13.24;100.00
32320;BME280;19080;51.750;5.888;2023-07-22T03:18:37;101122.84;;;13.22;100.00
32320;BME280;19080;51.750;5.888;2023-07-22T03:21:06;101118.28;;;13.12;100.00
32320;BME280;19080;51.750;5.888;2023-07-22T03:23:33;101118.22;;;13.02;100.00
32320;BME280;19080;51.750;5.888;2023-07-22T03:25:59;101105.56;;;12.82;100.00
32320;BME280;19080;51.750;5.888;2023-07-22T03:28:27;101129.63;;;12.89;100.00
32320;BME280;19080;51.750;5.888;2023-07-22T03:30:53;101031.34;;;12.30;100.00
32320;BME280;19080;51.750;5.888;2023-07-22T03:33:20;101146.44;;;12.85;100.00
32320;BME280;19080;51.750;5.888;2023-07-22T03:35:47;101149.94;;;12.80;100.00
32320;BME280;19080;51.750;5.888;2023-07-22T03:38:13;101122.16;;;12.58;100.00
32320;BME280;19080;51.750;5.888;2023-07-22T03:40:40;101106.94;;;12.46;100.00
32320;BME280;19080;51.750;5.888;2023-07-22T03:43:07;101143.53;;;12.62;100.00
32320;BME280;19080;51.750;5.888;2023-07-22T03:45:33;101141.75;;;12.63;100.00
32320;BME280;19080;51.750;5.888;2023-07-22T03:48:00;101160.41;;;12.63;100.00
32320;BME280;19080;51.750;5.888;2023-07-22T03:50:27;101147.00;;;12.57;100.00
32320;BME280;19080;51.750;5.888;2023-07-22T03:52:54;101155.88;;;12.56;100.00
32320;BME280;19080;51.750;5.888;2023-07-22T03:55:21;101154.06;;;12.52;100.00
32320;BME280;19080;51.750;5.888;2023-07-22T03:57:48;101137.06;;;12.41;100.00
32320;BME280;19080;51.750;5.888;2023-07-22T04:00:15;101149.56;;;12.48;100.00
32320;BME280;19080;51.750;5.888;2023-07-22T04:02:42;101153.97;;;12.44;100.00
32320;BME280;19080;51.750;5.888;2023-07-22T04:05:09;100993.97;;;11.49;100.00
32320;BME280;19080;51.750;5.888;2023-07-22T04:07:36;101129.84;;;12.32;100.00
32320;BME280;19080;51.750;5.888;2023-07-22T04:10:03;101146.81;;;12.42;100.00
32320;BME280;19080;51.750;5.888;2023-07-22T04:12:31;101128.94;;;12.31;100.00
32320;BME280;19080;51.750;5.888;2023-07-22T04:14:58;101145.97;;;12.44;100.00
32320;BME280;19080;51.750;5.888;2023-07-22T04:17:27;101133.50;;;12.40;100.00
32320;BME280;19080;51.750;5.888;2023-07-22T04:19:54;101140.69;;;12.47;100.00
32320;BME280;19080;51.750;5.888;2023-07-22T04:22:21;101108.56;;;12.33;100.00
32320;BME280;19080;51.750;5.888;2023-07-22T04:24:48;101143.53;;;12.64;100.00
32320;BME280;19080;51.750;5.888;2023-07-22T04:27:16;101095.28;;;12.36;100.00
32320;BME280;19080;51.750;5.888;2023-07-22T04:29:45;101152.53;;;12.72;100.00
32320;BME280;19080;51.750;5.888;2023-07-22T04:32:12;101155.22;;;12.75;100.00
32320;BME280;19080;51.750;5.888;2023-07-22T04:34:39;101156.16;;;12.80;100.00
32320;BME280;19080;51.750;5.888;2023-07-22T04:37:06;101145.50;;;12.80;100.00
32320;BME280;19080;51.750;5.888;2023-07-22T04:39:33;101137.50;;;12.80;100.00
32320;BME280;19080;51.750;5.888;2023-07-22T04:41:59;101091.13;;;12.60;100.00
32320;BME280;19080;51.750;5.888;2023-07-22T04:44:26;101159.06;;;13.01;100.00
32320;BME280;19080;51.750;5.888;2023-07-22T04:46:53;101147.53;;;13.02;100.00
32320;BME280;19080;51.750;5.888;2023-07-22T04:49:21;101134.22;;;13.04;100.00
32320;BME280;19080;51.750;5.888;2023-07-22T04:51:48;101149.44;;;13.16;100.00
32320;BME280;19080;51.750;5.888;2023-07-22T04:54:15;101131.66;;;13.15;100.00
32320;BME280;19080;51.750;5.888;2023-07-22T04:56:42;101155.88;;;13.36;100.00
32320;BME280;19080;51.750;5.888;2023-07-22T04:59:09;101103.22;;;13.14;100.00
32320;BME280;19080;51.750;5.888;2023-07-22T05:01:36;101160.50;;;13.58;100.00
32320;BME280;19080;51.750;5.888;2023-07-22T05:04:03;101160.56;;;13.64;100.00
32320;BME280;19080;51.750;5.888;2023-07-22T05:06:31;101156.19;;;13.74;100.00
32320;BME280;19080;51.750;5.888;2023-07-22T05:08:58;101093.78;;;13.51;100.00
32320;BME280;19080;51.750;5.888;2023-07-22T05:11:25;101138.47;;;13.91;100.00
32320;BME280;19080;51.750;5.888;2023-07-22T05:13:52;101159.03;;;14.09;100.00
32320;BME280;19080;51.750;5.888;2023-07-22T05:16:18;101172.53;;;14.33;100.00
32320;BME280;19080;51.750;5.888;2023-07-22T05:18:47;101171.75;;;14.50;100.00
32320;BME280;19080;51.750;5.888;2023-07-22T05:21:14;101133.50;;;14.57;100.00
32320;BME280;19080;51.750;5.888;2023-07-22T05:23:41;101164.78;;;14.91;100.00
32320;BME280;19080;51.750;5.888;2023-07-22T05:26:07;101155.00;;;15.01;100.00
32320;BME280;19080;51.750;5.888;2023-07-22T05:28:34;101160.38;;;15.16;100.00
32320;BME280;19080;51.750;5.888;2023-07-22T05:31:01;101136.31;;;15.18;100.00
32320;BME280;19080;51.750;5.888;2023-07-22T05:33:27;101056.97;;;14.89;100.00
32320;BME280;19080;51.750;5.888;2023-07-22T05:35:54;101156.81;;;15.51;100.00
32320;BME280;19080;51.750;5.888;2023-07-22T05:38:21;101127.41;;;15.48;100.00
32320;BME280;19080;51.750;5.888;2023-07-22T05:40:47;101150.56;;;15.90;100.00
32320;BME280;19080;51.750;5.888;2023-07-22T05:43:14;101162.97;;;16.21;100.00
32320;BME280;19080;51.750;5.888;2023-07-22T05:45:40;101168.28;;;16.43;100.00
32320;BME280;19080;51.750;5.888;2023-07-22T05:48:07;101163.75;;;16.52;100.00
32320;BME280;19080;51.750;5.888;2023-07-22T05:50:34;101146.78;;;16.52;100.00
32320;BME280;19080;51.750;5.888;2023-07-22T05:53:01;101173.53;;;16.75;100.00
32320;BME280;19080;51.750;5.888;2023-07-22T05:55:27;101164.56;;;16.80;100.00
32320;BME280;19080;51.750;5.888;2023-07-22T05:57:54;101169.75;;;17.11;100.00
32320;BME280;19080;51.750;5.888;2023-07-22T06:00:21;101164.97;;;17.49;100.00
32320;BME280;19080;51.750;5.888;2023-07-22T06:02:48;101162.03;;;17.83;100.00
32320;BME280;19080;51.750;5.888;2023-07-22T06:05:15;101167.03;;;18.19;100.00
32320;BME280;19080;51.750;5.888;2023-07-22T06:07:42;101164.69;;;18.69;100.00
32320;BME280;19080;51.750;5.888;2023-07-22T06:10:09;101134.81;;;18.90;100.00
32320;BME280;19080;51.750;5.888;2023-07-22T06:12:37;101165.16;;;19.57;100.00
32320;BME280;19080;51.750;5.888;2023-07-22T06:15:05;101171.44;;;19.57;100.00
32320;BME280;19080;51.750;5.888;2023-07-22T06:17:32;101160.72;;;19.54;100.00
32320;BME280;19080;51.750;5.888;2023-07-22T06:19:59;101153.25;;;19.71;100.00
32320;BME280;19080;51.750;5.888;2023-07-22T06:22:26;101155.03;;;19.72;100.00
32320;BME280;19080;51.750;5.888;2023-07-22T06:24:52;101155.84;;;19.76;100.00
32320;BME280;19080;51.750;5.888;2023-07-22T06:27:19;101161.59;;;20.07;100.00
32320;BME280;19080;51.750;5.888;2023-07-22T06:29:46;101154.63;;;20.43;100.00
32320;BME280;19080;51.750;5.888;2023-07-22T06:32:12;101147.03;;;20.62;100.00
32320;BME280;19080;51.750;5.888;2023-07-22T06:34:39;101139.75;;;20.65;100.00
32320;BME280;19080;51.750;5.888;2023-07-22T06:37:06;101130.16;;;20.52;100.00
32320;BME280;19080;51.750;5.888;2023-07-22T06:39:32;101134.59;;;20.08;100.00
32320;BME280;19080;51.750;5.888;2023-07-22T06:41:59;101153.28;;;20.18;100.00
32320;BME280;19080;51.750;5.888;2023-07-22T06:44:26;101136.53;;;20.02;100.00
32320;BME280;19080;51.750;5.888;2023-07-22T06:46:52;101130.25;;;20.01;100.00
32320;BME280;19080;51.750;5.888;2023-07-22T06:49:19;101145.44;;;20.05;100.00
32320;BME280;19080;51.750;5.888;2023-07-22T06:51:45;101118.56;;;20.02;100.00
32320;BME280;19080;51.750;5.888;2023-07-22T06:54:12;101149.31;;;20.37;100.00
32320;BME280;19080;51.750;5.888;2023-07-22T06:56:39;101114.91;;;20.51;100.00
32320;BME280;19080;51.750;5.888;2023-07-22T06:59:05;101140.38;;;20.78;100.00
32320;BME280;19080;51.750;5.888;2023-07-22T07:01:32;101134.84;;;20.83;100.00
32320;BME280;19080;51.750;5.888;2023-07-22T07:03:59;101137.47;;;20.86;100.00
32320;BME280;19080;51.750;5.888;2023-07-22T07:06:25;101127.38;;;20.95;100.00
32320;BME280;19080;51.750;5.888;2023-07-22T07:08:52;101097.78;;;20.91;100.00
32320;BME280;19080;51.750;5.888;2023-07-22T07:11:19;101069.94;;;20.89;100.00
32320;BME280;19080;51.750;5.888;2023-07-22T07:13:46;101133.59;;;21.37;100.00
32320;BME280;19080;51.750;5.888;2023-07-22T07:16:20;101113.00;;;21.33;100.00
32320;BME280;19080;51.750;5.888;2023-07-22T07:18:49;101148.50;;;21.54;100.00
32320;BME280;19080;51.750;5.888;2023-07-22T07:21:18;101118.31;;;21.36;100.00
32320;BME280;19080;51.750;5.888;2023-07-22T07:23:44;101131.97;;;21.30;100.00
32320;BME280;19080;51.750;5.888;2023-07-22T07:26:11;101113.91;;;21.32;100.00
32320;BME280;19080;51.750;5.888;2023-07-22T07:28:38;101125.16;;;21.51;100.00
32320;BME280;19080;51.750;5.888;2023-07-22T07:31:05;101130.34;;;21.59;100.00
32320;BME280;19080;51.750;5.888;2023-07-22T07:33:33;101136.50;;;21.65;100.00
32320;BME280;19080;51.750;5.888;2023-07-22T07:36:00;101132.75;;;21.71;100.00
32320;BME280;19080;51.750;5.888;2023-07-22T07:38:26;101123.63;;;21.75;100.00
32320;BME280;19080;51.750;5.888;2023-07-22T07:41:13;101062.22;;;21.48;100.00
32320;BME280;19080;51.750;5.888;2023-07-22T07:43:41;101065.84;;;21.47;100.00
32320;BME280;19080;51.750;5.888;2023-07-22T07:46:24;101136.34;;;22.05;100.00
32320;BME280;19080;51.750;5.888;2023-07-22T07:48:57;101135.22;;;22.14;100.00
32320;BME280;19080;51.750;5.888;2023-07-22T07:51:25;101140.66;;;22.13;100.00
32320;BME280;19080;51.750;5.888;2023-07-22T07:53:53;101073.28;;;21.71;100.00
32320;BME280;19080;51.750;5.888;2023-07-22T07:56:21;101134.31;;;22.14;100.00
32320;BME280;19080;51.750;5.888;2023-07-22T07:58:50;101062.09;;;21.85;100.00
32320;BME280;19080;51.750;5.888;2023-07-22T08:01:17;101106.78;;;21.98;100.00
32320;BME280;19080;51.750;5.888;2023-07-22T08:03:44;101131.34;;;22.23;100.00
32320;BME280;19080;51.750;5.888;2023-07-22T08:06:11;101082.19;;;22.08;100.00
32320;BME280;19080;51.750;5.888;2023-07-22T08:08:39;101122.88;;;22.35;100.00
32320;BME280;19080;51.750;5.888;2023-07-22T08:11:15;101131.50;;;22.49;100.00
32320;BME280;19080;51.750;5.888;2023-07-22T08:13:43;101133.66;;;22.36;100.00
32320;BME280;19080;51.750;5.888;2023-07-22T08:16:12;101129.84;;;22.44;100.00
32320;BME280;19080;51.750;5.888;2023-07-22T08:18:39;101131.84;;;22.37;100.00
32320;BME280;19080;51.750;5.888;2023-07-22T08:21:06;101064.97;;;22.42;100.00
32320;BME280;19080;51.750;5.888;2023-07-22T08:23:35;101139.72;;;23.05;100.00
32320;BME280;19080;51.750;5.888;2023-07-22T08:26:03;101139.97;;;23.25;100.00
32320;BME280;19080;51.750;5.888;2023-07-22T08:28:32;101140.97;;;23.77;95.18
32320;BME280;19080;51.750;5.888;2023-07-22T08:30:58;101145.13;;;24.12;92.91
32320;BME280;19080;51.750;5.888;2023-07-22T08:33:28;101128.25;;;24.29;90.17
32320;BME280;19080;51.750;5.888;2023-07-22T08:36:06;101139.53;;;24.42;87.44
32320;BME280;19080;51.750;5.888;2023-07-22T08:38:33;101134.63;;;24.28;86.64
32320;BME280;19080;51.750;5.888;2023-07-22T08:41:00;101130.00;;;24.30;87.99
32320;BME280;19080;51.750;5.888;2023-07-22T08:43:28;101145.91;;;24.41;85.75
32320;BME280;19080;51.750;5.888;2023-07-22T08:46:00;101144.91;;;24.43;81.67
32320;BME280;19080;51.750;5.888;2023-07-22T08:48:29;101136.69;;;24.45;83.00
32320;BME280;19080;51.750;5.888;2023-07-22T08:51:10;101135.94;;;24.41;85.95
32320;BME280;19080;51.750;5.888;2023-07-22T08:53:38;101127.31;;;24.30;81.14
32320;BME280;19080;51.750;5.888;2023-07-22T08:56:05;101112.47;;;24.15;85.27
32320;BME280;19080;51.750;5.888;2023-07-22T08:58:34;101130.72;;;24.35;81.82
32320;BME280;19080;51.750;5.888;2023-07-22T09:01:01;101074.31;;;24.20;82.19
32320;BME280;19080;51.750;5.888;2023-07-22T09:03:28;101133.75;;;24.74;78.66
32320;BME280;19080;51.750;5.888;2023-07-22T09:05:55;101139.84;;;24.81;77.19
32320;BME280;19080;51.750;5.888;2023-07-22T09:08:22;101119.31;;;24.97;74.58
32320;BME280;19080;51.750;5.888;2023-07-22T09:10:49;101124.31;;;25.08;71.14
32320;BME280;19080;51.750;5.888;2023-07-22T09:13:18;101130.38;;;25.14;73.16
32320;BME280;19080;51.750;5.888;2023-07-22T09:15:45;101137.09;;;25.27;71.63
32320;BME280;19080;51.750;5.888;2023-07-22T09:18:14;101130.31;;;25.38;69.32
32320;BME280;19080;51.750;5.888;2023-07-22T09:20:42;101142.03;;;25.40;66.68
32320;BME280;19080;51.750;5.888;2023-07-22T09:23:09;101127.03;;;25.51;67.26
32320;BME280;19080;51.750;5.888;2023-07-22T09:25:41;101126.56;;;25.62;66.10
32320;BME280;19080;51.750;5.888;2023-07-22T09:28:08;101114.84;;;25.40;65.20
32320;BME280;19080;51.750;5.888;2023-07-22T09:30:38;101120.22;;;25.19;67.18
32320;BME280;19080;51.750;5.888;2023-07-22T09:33:07;101067.22;;;24.86;65.45
32320;BME280;19080;51.750;5.888;2023-07-22T09:35:46;101057.34;;;24.61;66.76
32320;BME280;19080;51.750;5.888;2023-07-22T09:38:14;101037.88;;;24.50;64.88
32320;BME280;19080;51.750;5.888;2023-07-22T09:40:43;101115.97;;;24.89;64.64
32320;BME280;19080;51.750;5.888;2023-07-22T09:43:11;101120.47;;;24.90;66.33
32320;BME280;19080;51.750;5.888;2023-07-22T09:45:38;101113.97;;;24.94;62.80
32320;BME280;19080;51.750;5.888;2023-07-22T09:48:05;101113.09;;;24.93;64.46
32320;BME280;19080;51.750;5.888;2023-07-22T09:50:36;101056.63;;;24.80;61.01
32320;BME280;19080;51.750;5.888;2023-07-22T09:53:03;101059.00;;;24.87;60.03
32320;BME280;19080;51.750;5.888;2023-07-22T09:55:31;100996.19;;;24.75;61.84
32320;BME280;19080;51.750;5.888;2023-07-22T09:58:00;101120.31;;;25.60;60.21
32320;BME280;19080;51.750;5.888;2023-07-22T10:00:32;101104.75;;;25.63;60.72
32320;BME280;19080;51.750;5.888;2023-07-22T10:03:01;101059.31;;;25.67;58.53
32320;BME280;19080;51.750;5.888;2023-07-22T10:05:28;101092.53;;;26.35;56.65
32320;BME280;19080;51.750;5.888;2023-07-22T10:07:57;101107.66;;;26.61;54.57
32320;BME280;19080;51.750;5.888;2023-07-22T10:10:35;101089.75;;;26.36;53.94
32320;BME280;19080;51.750;5.888;2023-07-22T10:13:02;101072.91;;;26.26;53.09
32320;BME280;19080;51.750;5.888;2023-07-22T10:15:31;101098.28;;;26.47;54.14
32320;BME280;19080;51.750;5.888;2023-07-22T10:18:00;101039.13;;;26.32;53.80
32320;BME280;19080;51.750;5.888;2023-07-22T10:20:28;101090.22;;;26.83;55.09
32320;BME280;19080;51.750;5.888;2023-07-22T10:22:55;101078.59;;;26.80;54.65
32320;BME280;19080;51.750;5.888;2023-07-22T10:25:22;101082.13;;;26.82;53.10
32320;BME280;19080;51.750;5.888;2023-07-22T10:27:52;101107.59;;;27.18;54.48
32320;BME280;19080;51.750;5.888;2023-07-22T10:30:19;101100.88;;;27.26;52.41
32320;BME280;19080;51.750;5.888;2023-07-22T10:32:48;101089.47;;;27.17;51.12
32320;BME280;19080;51.750;5.888;2023-07-22T10:38:08;101088.16;;;26.70;50.54
32320;BME280;19080;51.750;5.888;2023-07-22T10:40:52;101070.34;;;26.81;51.82
32320;BME280;19080;51.750;5.888;2023-07-22T10:43:34;101097.00;;;27.12;51.96
32320;BME280;19080;51.750;5.888;2023-07-22T10:46:12;101095.16;;;27.49;47.73
32320;BME280;19080;51.750;5.888;2023-07-22T10:48:40;101092.25;;;27.35;50.35
32320;BME280;19080;51.750;5.888;2023-07-22T10:51:12;101089.38;;;27.38;49.36
32320;BME280;19080;51.750;5.888;2023-07-22T10:53:46;101020.34;;;27.01;49.24
32320;BME280;19080;51.750;5.888;2023-07-22T10:56:23;101033.19;;;26.62;48.85
32320;BME280;19080;51.750;5.888;2023-07-22T11:01:24;101090.84;;;26.32;50.85
32320;BME280;19080;51.750;5.888;2023-07-22T11:06:39;101083.59;;;26.89;50.98
32320;BME280;19080;51.750;5.888;2023-07-22T11:09:06;101046.03;;;27.14;51.36
32320;BME280;19080;51.750;5.888;2023-07-22T11:11:40;101076.50;;;27.22;52.06
32320;BME280;19080;51.750;5.888;2023-07-22T11:14:17;101078.00;;;26.92;52.32
32320;BME280;19080;51.750;5.888;2023-07-22T11:16:46;101049.50;;;26.80;52.18
32320;BME280;19080;51.750;5.888;2023-07-22T11:19:14;101076.06;;;26.94;50.61
32320;BME280;19080;51.750;5.888;2023-07-22T11:21:42;101083.88;;;26.45;50.54
32320;BME280;19080;51.750;5.888;2023-07-22T11:24:10;101065.34;;;26.53;51.90
32320;BME280;19080;51.750;5.888;2023-07-22T11:26:37;101033.41;;;26.57;52.09
32320;BME280;19080;51.750;5.888;2023-07-22T11:29:05;101067.09;;;26.73;51.03
32320;BME280;19080;51.750;5.888;2023-07-22T11:31:36;101068.88;;;26.74;51.41
32320;BME280;19080;51.750;5.888;2023-07-22T11:34:04;101066.13;;;27.12;49.45
32320;BME280;19080;51.750;5.888;2023-07-22T11:36:31;101026.31;;;27.27;49.54
32320;BME280;19080;51.750;5.888;2023-07-22T11:39:06;101059.66;;;28.35;48.15
32320;BME280;19080;51.750;5.888;2023-07-22T11:41:35;100994.28;;;27.66;48.87
32320;BME280;19080;51.750;5.888;2023-07-22T11:44:03;101000.91;;;26.90;49.03
32320;BME280;19080;51.750;5.888;2023-07-22T11:46:36;100987.66;;;26.26;49.88
32320;BME280;19080;51.750;5.888;2023-07-22T11:49:02;101046.72;;;26.24;51.18
32320;BME280;19080;51.750;5.888;2023-07-22T11:51:29;100979.91;;;25.79;51.37
32320;BME280;19080;51.750;5.888;2023-07-22T11:53:56;101053.59;;;27.44;48.84
32320;BME280;19080;51.750;5.888;2023-07-22T11:56:27;100981.13;;;27.90;46.81
32320;BME280;19080;51.750;5.888;2023-07-22T11:58:55;101023.44;;;28.14;44.83
32320;BME280;19080;51.750;5.888;2023-07-22T12:01:23;101006.09;;;28.15;44.65
32320;BME280;19080;51.750;5.888;2023-07-22T12:03:55;101033.28;;;28.83;44.65
32320;BME280;19080;51.750;5.888;2023-07-22T12:06:25;100940.19;;;28.55;43.39
32320;BME280;19080;51.750;5.888;2023-07-22T12:08:52;101018.13;;;28.93;42.19
32320;BME280;19080;51.750;5.888;2023-07-22T12:11:21;101031.66;;;28.47;42.84
32320;BME280;19080;51.750;5.888;2023-07-22T12:14:03;101040.53;;;28.18;42.85
32320;BME280;19080;51.750;5.888;2023-07-22T12:16:30;101034.44;;;28.30;42.97
32320;BME280;19080;51.750;5.888;2023-07-22T12:18:57;101007.06;;;28.79;43.32
32320;BME280;19080;51.750;5.888;2023-07-22T12:21:23;101037.00;;;29.88;41.27
32320;BME280;19080;51.750;5.888;2023-07-22T12:23:52;101037.69;;;29.47;39.12
32320;BME280;19080;51.750;5.888;2023-07-22T12:26:20;101023.47;;;28.47;41.20
32320;BME280;19080;51.750;5.888;2023-07-22T12:28:47;101029.81;;;27.65;41.65
32320;BME280;19080;51.750;5.888;2023-07-22T12:31:13;100971.25;;;26.84;42.49
32320;BME280;19080;51.750;5.888;2023-07-22T12:33:40;101002.75;;;27.43;41.77
32320;BME280;19080;51.750;5.888;2023-07-22T12:36:07;101003.53;;;28.45;41.41
32320;BME280;19080;51.750;5.888;2023-07-22T12:38:33;101000.56;;;28.17;41.99
32320;BME280;19080;51.750;5.888;2023-07-22T12:41:01;100964.16;;;28.34;40.96
32320;BME280;19080;51.750;5.888;2023-07-22T12:43:28;100971.13;;;28.71;41.29
32320;BME280;19080;51.750;5.888;2023-07-22T12:45:54;101017.78;;;30.46;40.19
32320;BME280;19080;51.750;5.888;2023-07-22T12:48:21;101014.16;;;31.28;37.74
32320;BME280;19080;51.750;5.888;2023-07-22T12:50:48;101018.28;;;30.53;38.72
32320;BME280;19080;51.750;5.888;2023-07-22T12:53:14;101017.31;;;30.25;38.99
32320;BME280;19080;51.750;5.888;2023-07-22T12:55:41;100952.94;;;31.27;37.74